sensor_id;sensor_type;location;lat;lon;timestamp;P1;durP1;ratioP1;P2;durP2;ratioP2
17261;SDS011;9873;52.236;21.002;2023-03-01T00:06:35;35.57;;;17.57;;
17261;SDS011;9873;52.236;21.002;2023-03-01T00:16:41;40.13;;;19.67;;
17261;SDS011;9873;52.236;21.002;2023-03-01T00:26:43;42.47;;;20.93;;
17261;SDS011;9873;52.236;21.002;2023-03-01T00:36:50;42.87;;;20.47;;
17261;SDS011;9873;52.236;21.002;2023-03-01T00:46:53;37.47;;;17.77;;
17261;SDS011;9873;52.236;21.002;2023-03-01T00:56:59;40.27;;;18.87;;
17261;SDS011;9873;52.236;21.002;2023-03-01T01:07:01;48.60;;;21.43;;
17261;SDS011;9873;52.236;21.002;2023-03-01T01:17:04;41.33;;;19.30;;
17261;SDS011;9873;52.236;21.002;2023-03-01T01:27:08;44.27;;;20.97;;
17261;SDS011;9873;52.236;21.002;2023-03-01T01:37:17;56.10;;;21.10;;
17261;SDS011;9873;52.236;21.002;2023-03-01T01:47:21;40.67;;;20.00;;
17261;SDS011;9873;52.236;21.002;2023-03-01T01:57:32;47.07;;;20.90;;
17261;SDS011;9873;52.236;21.002;2023-03-01T02:07:39;39.97;;;18.70;;
17261;SDS011;9873;52.236;21.002;2023-03-01T02:17:42;40.93;;;19.33;;
17261;SDS011;9873;52.236;21.002;2023-03-01T02:27:57;38.33;;;18.40;;
17261;SDS011;9873;52.236;21.002;2023-03-01T02:38:07;32.93;;;15.67;;
17261;SDS011;9873;52.236;21.002;2023-03-01T02:48:13;28.20;;;12.77;;
17261;SDS011;9873;52.236;21.002;2023-03-01T02:58:17;43.07;;;21.23;;
17261;SDS011;9873;52.236;21.002;2023-03-01T03:08:19;41.93;;;18.43;;
17261;SDS011;9873;52.236;21.002;2023-03-01T03:18:26;26.17;;;11.97;;
17261;SDS011;9873;52.236;21.002;2023-03-01T03:28:30;42.20;;;18.27;;
17261;SDS011;9873;52.236;21.002;2023-03-01T03:38:34;42.43;;;18.60;;
17261;SDS011;9873;52.236;21.002;2023-03-01T03:48:38;47.97;;;19.97;;
17261;SDS011;9873;52.236;21.002;2023-03-01T03:58:44;46.37;;;21.60;;
17261;SDS011;9873;52.236;21.002;2023-03-01T04:08:50;37.57;;;18.73;;
17261;SDS011;9873;52.236;21.002;2023-03-01T04:19:04;32.13;;;12.93;;
17261;SDS011;9873;52.236;21.002;2023-03-01T04:29:08;46.70;;;19.33;;
17261;SDS011;9873;52.236;21.002;2023-03-01T04:39:10;40.17;;;18.13;;
17261;SDS011;9873;52.236;21.002;2023-03-01T04:49:15;16.67;;;8.10;;
17261;SDS011;9873;52.236;21.002;2023-03-01T04:59:22;41.43;;;17.03;;
17261;SDS011;9873;52.236;21.002;2023-03-01T05:09:29;45.70;;;19.17;;
17261;SDS011;9873;52.236;21.002;2023-03-01T05:19:36;34.23;;;18.43;;
17261;SDS011;9873;52.236;21.002;2023-03-01T05:29:44;43.47;;;20.37;;
17261;SDS011;9873;52.236;21.002;2023-03-01T05:39:48;48.83;;;23.20;;
17261;SDS011;9873;52.236;21.002;2023-03-01T05:49:55;48.97;;;22.87;;
17261;SDS011;9873;52.236;21.002;2023-03-01T05:59:57;41.27;;;18.93;;
17261;SDS011;9873;52.236;21.002;2023-03-01T06:10:03;51.73;;;22.43;;
17261;SDS011;9873;52.236;21.002;2023-03-01T06:20:13;38.50;;;18.53;;
17261;SDS011;9873;52.236;21.002;2023-03-01T06:30:26;41.20;;;19.83;;
17261;SDS011;9873;52.236;21.002;2023-03-01T06:40:29;29.67;;;14.47;;
17261;SDS011;9873;52.236;21.002;2023-03-01T06:50:34;39.60;;;19.63;;
17261;SDS011;9873;52.236;21.002;2023-03-01T07:00:41;45.43;;;24.87;;
17261;SDS011;9873;52.236;21.002;2023-03-01T07:10:45;39.13;;;17.73;;
17261;SDS011;9873;52.236;21.002;2023-03-01T07:20:47;38.10;;;18.63;;
17261;SDS011;9873;52.236;21.002;2023-03-01T07:30:54;40.13;;;16.73;;
17261;SDS011;9873;52.236;21.002;2023-03-01T07:41:00;29.37;;;16.30;;
17261;SDS011;9873;52.236;21.002;2023-03-01T07:51:04;35.80;;;17.20;;
17261;SDS011;9873;52.236;21.002;2023-03-01T08:01:08;36.10;;;17.37;;
17261;SDS011;9873;52.236;21.002;2023-03-01T08:11:12;27.70;;;16.23;;
17261;SDS011;9873;52.236;21.002;2023-03-01T08:21:16;31.70;;;17.23;;
17261;SDS011;9873;52.236;21.002;2023-03-01T08:31:24;26.87;;;15.67;;
17261;SDS011;9873;52.236;21.002;2023-03-01T08:41:29;28.97;;;15.70;;
17261;SDS011;9873;52.236;21.002;2023-03-01T08:51:32;30.37;;;15.73;;
17261;SDS011;9873;52.236;21.002;2023-03-01T09:01:40;26.03;;;14.60;;
17261;SDS011;9873;52.236;21.002;2023-03-01T09:11:49;25.33;;;13.23;;
17261;SDS011;9873;52.236;21.002;2023-03-01T09:21:54;25.33;;;14.33;;
17261;SDS011;9873;52.236;21.002;2023-03-01T09:31:58;29.57;;;15.37;;
17261;SDS011;9873;52.236;21.002;2023-03-01T09:42:05;28.80;;;15.73;;
17261;SDS011;9873;52.236;21.002;2023-03-01T10:02:26;25.93;;;14.40;;
17261;SDS011;9873;52.236;21.002;2023-03-01T10:12:37;24.53;;;14.63;;
17261;SDS011;9873;52.236;21.002;2023-03-01T10:22:44;23.77;;;13.60;;
17261;SDS011;9873;52.236;21.002;2023-03-01T10:32:55;23.43;;;12.33;;
17261;SDS011;9873;52.236;21.002;2023-03-01T10:43:05;25.33;;;12.60;;
17261;SDS011;9873;52.236;21.002;2023-03-01T10:53:29;21.07;;;11.00;;
17261;SDS011;9873;52.236;21.002;2023-03-01T11:03:37;20.57;;;11.93;;
17261;SDS011;9873;52.236;21.002;2023-03-01T11:24:30;19.10;;;11.10;;
17261;SDS011;9873;52.236;21.002;2023-03-01T11:34:43;20.00;;;9.97;;
17261;SDS011;9873;52.236;21.002;2023-03-01T11:44:58;18.77;;;10.70;;
17261;SDS011;9873;52.236;21.002;2023-03-01T12:56:47;17.63;;;9.73;;
17261;SDS011;9873;52.236;21.002;2023-03-01T13:17:30;15.30;;;8.83;;
17261;SDS011;9873;52.236;21.002;2023-03-01T13:27:34;17.13;;;8.80;;
17261;SDS011;9873;52.236;21.002;2023-03-01T13:37:37;17.27;;;9.30;;
17261;SDS011;9873;52.236;21.002;2023-03-01T13:47:41;12.63;;;7.97;;
17261;SDS011;9873;52.236;21.002;2023-03-01T13:57:46;15.82;;;8.52;;
17261;SDS011;9873;52.236;21.002;2023-03-01T14:07:55;14.27;;;8.50;;
17261;SDS011;9873;52.236;21.002;2023-03-01T14:38:22;16.50;;;9.83;;
17261;SDS011;9873;52.236;21.002;2023-03-01T14:48:26;14.93;;;8.80;;
17261;SDS011;9873;52.236;21.002;2023-03-01T14:58:31;17.07;;;9.77;;
17261;SDS011;9873;52.236;21.002;2023-03-01T15:08:36;16.53;;;10.63;;
17261;SDS011;9873;52.236;21.002;2023-03-01T15:18:46;17.00;;;10.67;;
17261;SDS011;9873;52.236;21.002;2023-03-01T15:28:53;20.00;;;11.73;;
17261;SDS011;9873;52.236;21.002;2023-03-01T15:39:05;22.60;;;12.43;;
17261;SDS011;9873;52.236;21.002;2023-03-01T15:59:58;19.93;;;11.47;;
17261;SDS011;9873;52.236;21.002;2023-03-01T16:10:04;20.03;;;11.27;;
17261;SDS011;9873;52.236;21.002;2023-03-01T16:20:14;20.13;;;10.07;;
17261;SDS011;9873;52.236;21.002;2023-03-01T16:30:32;25.53;;;11.43;;
17261;SDS011;9873;52.236;21.002;2023-03-01T16:40:38;28.10;;;12.13;;
17261;SDS011;9873;52.236;21.002;2023-03-01T16:50:42;24.53;;;11.53;;
17261;SDS011;9873;52.236;21.002;2023-03-01T17:00:44;23.77;;;12.17;;
17261;SDS011;9873;52.236;21.002;2023-03-01T17:10:46;18.67;;;11.23;;
17261;SDS011;9873;52.236;21.002;2023-03-01T17:20:48;19.33;;;10.60;;
17261;SDS011;9873;52.236;21.002;2023-03-01T17:30:53;19.43;;;10.67;;
17261;SDS011;9873;52.236;21.002;2023-03-01T17:40:59;21.30;;;10.33;;
17261;SDS011;9873;52.236;21.002;2023-03-01T17:51:06;20.30;;;10.60;;
17261;SDS011;9873;52.236;21.002;2023-03-01T18:01:14;19.63;;;10.57;;
17261;SDS011;9873;52.236;21.002;2023-03-01T18:11:21;21.73;;;10.13;;
17261;SDS011;9873;52.236;21.002;2023-03-01T18:21:24;23.33;;;12.20;;
17261;SDS011;9873;52.236;21.002;2023-03-01T18:31:29;23.30;;;11.67;;
17261;SDS011;9873;52.236;21.002;2023-03-01T18:41:35;22.87;;;11.77;;
17261;SDS011;9873;52.236;21.002;2023-03-01T18:51:43;28.13;;;13.90;;
17261;SDS011;9873;52.236;21.002;2023-03-01T19:01:46;24.57;;;13.17;;
17261;SDS011;9873;52.236;21.002;2023-03-01T19:11:50;23.43;;;12.87;;
17261;SDS011;9873;52.236;21.002;2023-03-01T19:22:02;28.00;;;14.80;;
17261;SDS011;9873;52.236;21.002;2023-03-01T19:32:06;25.43;;;13.47;;
17261;SDS011;9873;52.236;21.002;2023-03-01T19:42:14;36.70;;;16.37;;
17261;SDS011;9873;52.236;21.002;2023-03-01T19:52:18;35.00;;;17.63;;
17261;SDS011;9873;52.236;21.002;2023-03-01T20:02:21;30.20;;;15.23;;
17261;SDS011;9873;52.236;21.002;2023-03-01T20:12:29;37.47;;;17.63;;
17261;SDS011;9873;52.236;21.002;2023-03-01T20:22:34;38.77;;;17.50;;
17261;SDS011;9873;52.236;21.002;2023-03-01T20:32:36;38.97;;;18.67;;
17261;SDS011;9873;52.236;21.002;2023-03-01T20:42:42;40.53;;;19.77;;
17261;SDS011;9873;52.236;21.002;2023-03-01T20:52:44;41.97;;;20.73;;
17261;SDS011;9873;52.236;21.002;2023-03-01T21:02:49;45.17;;;19.97;;
17261;SDS011;9873;52.236;21.002;2023-03-01T21:12:54;40.00;;;21.50;;
17261;SDS011;9873;52.236;21.002;2023-03-01T21:22:58;43.03;;;21.87;;
17261;SDS011;9873;52.236;21.002;2023-03-01T21:33:03;44.80;;;21.83;;
17261;SDS011;9873;52.236;21.002;2023-03-01T21:43:05;42.93;;;21.77;;
17261;SDS011;9873;52.236;21.002;2023-03-01T21:53:09;38.27;;;21.77;;
17261;SDS011;9873;52.236;21.002;2023-03-01T22:03:16;45.93;;;23.53;;
17261;SDS011;9873;52.236;21.002;2023-03-01T22:13:21;44.73;;;22.60;;
17261;SDS011;9873;52.236;21.002;2023-03-01T22:23:23;48.80;;;23.87;;
17261;SDS011;9873;52.236;21.002;2023-03-01T22:33:25;44.40;;;24.37;;
17261;SDS011;9873;52.236;21.002;2023-03-01T22:43:29;52.87;;;25.50;;
17261;SDS011;9873;52.236;21.002;2023-03-01T22:53:33;46.23;;;26.03;;
17261;SDS011;9873;52.236;21.002;2023-03-01T23:03:35;58.13;;;28.30;;
17261;SDS011;9873;52.236;21.002;2023-03-01T23:13:45;56.50;;;28.77;;
17261;SDS011;9873;52.236;21.002;2023-03-01T23:23:52;57.90;;;29.03;;
17261;SDS011;9873;52.236;21.002;2023-03-01T23:33:55;57.97;;;27.33;;
17261;SDS011;9873;52.236;21.002;2023-03-01T23:44:01;55.37;;;28.07;;
17261;SDS011;9873;52.236;21.002;2023-03-01T23:54:07;53.10;;;28.17;;
